sensor_id;sensor_type;location;lat;lon;timestamp;P1;durP1;ratioP1;P2;durP2;ratioP2
28547;SDS011;68292;49.600;8.746;2023-09-19T00:00:47;1.52;;;1.42;;
28547;SDS011;68292;49.600;8.746;2023-09-19T00:03:17;1.40;;;1.30;;
28547;SDS011;68292;49.600;8.746;2023-09-19T00:05:46;2.40;;;1.20;;
28547;SDS011;68292;49.600;8.746;2023-09-19T00:08:17;1.48;;;1.35;;
28547;SDS011;68292;49.600;8.746;2023-09-19T00:10:50;1.02;;;1.00;;
28547;SDS011;68292;49.600;8.746;2023-09-19T00:13:20;1.45;;;1.27;;
28547;SDS011;68292;49.600;8.746;2023-09-19T00:15:50;1.42;;;1.20;;
28547;SDS011;68292;49.600;8.746;2023-09-19T00:18:22;2.22;;;1.33;;
28547;SDS011;68292;49.600;8.746;2023-09-19T00:20:56;1.20;;;1.10;;
28547;SDS011;68292;49.600;8.746;2023-09-19T00:23:25;1.63;;;1.27;;
28547;SDS011;68292;49.600;8.746;2023-09-19T00:25:59;1.30;;;1.20;;
28547;SDS011;68292;49.600;8.746;2023-09-19T00:28:28;1.60;;;1.50;;
28547;SDS011;68292;49.600;8.746;2023-09-19T00:30:58;3.95;;;1.48;;
28547;SDS011;68292;49.600;8.746;2023-09-19T00:33:30;2.35;;;1.40;;
28547;SDS011;68292;49.600;8.746;2023-09-19T00:36:00;1.73;;;1.38;;
28547;SDS011;68292;49.600;8.746;2023-09-19T00:38:32;2.53;;;1.50;;
28547;SDS011;68292;49.600;8.746;2023-09-19T00:41:02;2.15;;;1.60;;
28547;SDS011;68292;49.600;8.746;2023-09-19T00:43:31;1.98;;;1.23;;
28547;SDS011;68292;49.600;8.746;2023-09-19T00:46:02;1.90;;;1.20;;
28547;SDS011;68292;49.600;8.746;2023-09-19T00:48:35;1.40;;;1.30;;
28547;SDS011;68292;49.600;8.746;2023-09-19T00:51:11;1.98;;;1.40;;
28547;SDS011;68292;49.600;8.746;2023-09-19T00:53:45;1.30;;;1.20;;
28547;SDS011;68292;49.600;8.746;2023-09-19T00:56:16;3.67;;;1.45;;
28547;SDS011;68292;49.600;8.746;2023-09-19T00:58:46;1.75;;;1.30;;
28547;SDS011;68292;49.600;8.746;2023-09-19T01:01:16;2.35;;;1.42;;
28547;SDS011;68292;49.600;8.746;2023-09-19T01:03:45;2.00;;;1.23;;
28547;SDS011;68292;49.600;8.746;2023-09-19T01:06:15;1.60;;;1.40;;
28547;SDS011;68292;49.600;8.746;2023-09-19T01:08:44;4.20;;;1.42;;
28547;SDS011;68292;49.600;8.746;2023-09-19T01:11:14;1.85;;;1.58;;
28547;SDS011;68292;49.600;8.746;2023-09-19T01:13:54;1.65;;;1.48;;
28547;SDS011;68292;49.600;8.746;2023-09-19T01:16:35;1.95;;;1.50;;
28547;SDS011;68292;49.600;8.746;2023-09-19T01:19:17;1.38;;;1.20;;
28547;SDS011;68292;49.600;8.746;2023-09-19T01:22:42;1.17;;;1.17;;
28547;SDS011;68292;49.600;8.746;2023-09-19T01:25:36;1.90;;;1.50;;
28547;SDS011;68292;49.600;8.746;2023-09-19T01:28:34;1.85;;;1.30;;
28547;SDS011;68292;49.600;8.746;2023-09-19T01:31:15;1.70;;;1.60;;
28547;SDS011;68292;49.600;8.746;2023-09-19T01:33:56;2.83;;;1.17;;
28547;SDS011;68292;49.600;8.746;2023-09-19T01:36:28;1.35;;;1.20;;
28547;SDS011;68292;49.600;8.746;2023-09-19T01:39:01;1.73;;;1.50;;
28547;SDS011;68292;49.600;8.746;2023-09-19T01:41:45;2.28;;;1.60;;
28547;SDS011;68292;49.600;8.746;2023-09-19T01:44:25;3.28;;;1.60;;
28547;SDS011;68292;49.600;8.746;2023-09-19T01:47:02;2.10;;;1.48;;
28547;SDS011;68292;49.600;8.746;2023-09-19T01:49:42;2.53;;;1.35;;
28547;SDS011;68292;49.600;8.746;2023-09-19T01:52:24;3.70;;;1.30;;
28547;SDS011;68292;49.600;8.746;2023-09-19T01:54:56;2.70;;;1.60;;
28547;SDS011;68292;49.600;8.746;2023-09-19T01:57:35;1.48;;;1.38;;
28547;SDS011;68292;49.600;8.746;2023-09-19T02:00:16;4.30;;;1.80;;
28547;SDS011;68292;49.600;8.746;2023-09-19T02:02:49;1.50;;;1.40;;
28547;SDS011;68292;49.600;8.746;2023-09-19T02:05:23;2.15;;;1.38;;
28547;SDS011;68292;49.600;8.746;2023-09-19T02:07:54;1.48;;;1.38;;
28547;SDS011;68292;49.600;8.746;2023-09-19T02:10:25;3.03;;;1.60;;
28547;SDS011;68292;49.600;8.746;2023-09-19T02:12:54;3.80;;;1.42;;
28547;SDS011;68292;49.600;8.746;2023-09-19T02:15:23;2.03;;;1.48;;
28547;SDS011;68292;49.600;8.746;2023-09-19T02:17:53;1.55;;;1.45;;
28547;SDS011;68292;49.600;8.746;2023-09-19T02:20:23;2.08;;;1.48;;
28547;SDS011;68292;49.600;8.746;2023-09-19T02:22:52;3.17;;;1.70;;
28547;SDS011;68292;49.600;8.746;2023-09-19T02:25:21;2.53;;;1.70;;
28547;SDS011;68292;49.600;8.746;2023-09-19T02:27:50;1.65;;;1.35;;
28547;SDS011;68292;49.600;8.746;2023-09-19T02:30:23;1.90;;;1.52;;
28547;SDS011;68292;49.600;8.746;2023-09-19T02:32:53;3.65;;;1.88;;
28547;SDS011;68292;49.600;8.746;2023-09-19T02:35:22;5.10;;;1.60;;
28547;SDS011;68292;49.600;8.746;2023-09-19T02:37:52;2.50;;;1.60;;
28547;SDS011;68292;49.600;8.746;2023-09-19T02:40:21;2.00;;;1.48;;
28547;SDS011;68292;49.600;8.746;2023-09-19T02:42:53;1.98;;;1.70;;
28547;SDS011;68292;49.600;8.746;2023-09-19T02:45:26;2.30;;;1.80;;
28547;SDS011;68292;49.600;8.746;2023-09-19T02:47:57;2.92;;;1.67;;
28547;SDS011;68292;49.600;8.746;2023-09-19T02:50:26;2.10;;;1.30;;
28547;SDS011;68292;49.600;8.746;2023-09-19T02:52:55;3.15;;;1.65;;
28547;SDS011;68292;49.600;8.746;2023-09-19T02:55:25;1.90;;;1.60;;
28547;SDS011;68292;49.600;8.746;2023-09-19T02:57:54;1.65;;;1.55;;
28547;SDS011;68292;49.600;8.746;2023-09-19T03:00:24;2.53;;;1.98;;
28547;SDS011;68292;49.600;8.746;2023-09-19T03:02:54;3.05;;;1.70;;
28547;SDS011;68292;49.600;8.746;2023-09-19T03:05:26;2.08;;;1.50;;
28547;SDS011;68292;49.600;8.746;2023-09-19T03:07:58;3.13;;;1.98;;
28547;SDS011;68292;49.600;8.746;2023-09-19T03:10:31;2.00;;;1.80;;
28547;SDS011;68292;49.600;8.746;2023-09-19T03:13:00;3.88;;;1.90;;
28547;SDS011;68292;49.600;8.746;2023-09-19T03:15:30;2.03;;;1.65;;
28547;SDS011;68292;49.600;8.746;2023-09-19T03:17:59;1.92;;;1.52;;
28547;SDS011;68292;49.600;8.746;2023-09-19T03:20:29;1.58;;;1.48;;
28547;SDS011;68292;49.600;8.746;2023-09-19T03:22:58;2.38;;;1.50;;
28547;SDS011;68292;49.600;8.746;2023-09-19T03:25:28;1.67;;;1.58;;
28547;SDS011;68292;49.600;8.746;2023-09-19T03:27:57;2.42;;;1.50;;
28547;SDS011;68292;49.600;8.746;2023-09-19T03:30:26;1.83;;;1.48;;
28547;SDS011;68292;49.600;8.746;2023-09-19T03:32:55;2.97;;;1.67;;
28547;SDS011;68292;49.600;8.746;2023-09-19T03:35:25;2.25;;;1.75;;
28547;SDS011;68292;49.600;8.746;2023-09-19T03:37:55;2.67;;;1.67;;
28547;SDS011;68292;49.600;8.746;2023-09-19T03:40:24;1.88;;;1.60;;
28547;SDS011;68292;49.600;8.746;2023-09-19T03:42:53;1.73;;;1.60;;
28547;SDS011;68292;49.600;8.746;2023-09-19T03:45:22;1.85;;;1.75;;
28547;SDS011;68292;49.600;8.746;2023-09-19T03:47:51;2.25;;;1.70;;
28547;SDS011;68292;49.600;8.746;2023-09-19T03:50:22;2.05;;;1.60;;
28547;SDS011;68292;49.600;8.746;2023-09-19T03:52:57;2.03;;;1.80;;
28547;SDS011;68292;49.600;8.746;2023-09-19T03:55:25;3.30;;;1.60;;
28547;SDS011;68292;49.600;8.746;2023-09-19T03:57:54;3.70;;;2.00;;
28547;SDS011;68292;49.600;8.746;2023-09-19T04:00:23;1.98;;;1.70;;
28547;SDS011;68292;49.600;8.746;2023-09-19T04:02:53;3.72;;;1.90;;
28547;SDS011;68292;49.600;8.746;2023-09-19T04:05:23;2.03;;;1.80;;
28547;SDS011;68292;49.600;8.746;2023-09-19T04:07:52;2.97;;;2.00;;
28547;SDS011;68292;49.600;8.746;2023-09-19T04:10:22;3.42;;;2.08;;
28547;SDS011;68292;49.600;8.746;2023-09-19T04:12:53;2.63;;;2.00;;
28547;SDS011;68292;49.600;8.746;2023-09-19T04:15:23;2.72;;;2.10;;
28547;SDS011;68292;49.600;8.746;2023-09-19T04:17:53;2.50;;;2.20;;
28547;SDS011;68292;49.600;8.746;2023-09-19T04:20:22;3.30;;;2.15;;
28547;SDS011;68292;49.600;8.746;2023-09-19T04:22:51;2.83;;;2.30;;
28547;SDS011;68292;49.600;8.746;2023-09-19T04:25:20;3.22;;;2.35;;
28547;SDS011;68292;49.600;8.746;2023-09-19T04:27:50;5.10;;;2.28;;
28547;SDS011;68292;49.600;8.746;2023-09-19T04:30:19;3.78;;;2.42;;
28547;SDS011;68292;49.600;8.746;2023-09-19T04:32:48;2.33;;;2.13;;
28547;SDS011;68292;49.600;8.746;2023-09-19T04:35:18;3.45;;;2.22;;
28547;SDS011;68292;49.600;8.746;2023-09-19T04:37:47;2.70;;;2.28;;
28547;SDS011;68292;49.600;8.746;2023-09-19T04:40:16;3.75;;;2.58;;
28547;SDS011;68292;49.600;8.746;2023-09-19T04:42:54;5.85;;;2.38;;
28547;SDS011;68292;49.600;8.746;2023-09-19T04:45:24;5.35;;;2.30;;
28547;SDS011;68292;49.600;8.746;2023-09-19T04:47:53;4.32;;;2.22;;
28547;SDS011;68292;49.600;8.746;2023-09-19T04:50:23;2.40;;;2.20;;
28547;SDS011;68292;49.600;8.746;2023-09-19T04:52:54;3.03;;;2.30;;
28547;SDS011;68292;49.600;8.746;2023-09-19T04:55:23;3.50;;;2.60;;
28547;SDS011;68292;49.600;8.746;2023-09-19T04:57:54;2.45;;;2.25;;
28547;SDS011;68292;49.600;8.746;2023-09-19T05:00:23;2.40;;;2.20;;
28547;SDS011;68292;49.600;8.746;2023-09-19T05:02:54;2.60;;;2.35;;
28547;SDS011;68292;49.600;8.746;2023-09-19T05:05:24;2.80;;;2.30;;
28547;SDS011;68292;49.600;8.746;2023-09-19T05:07:53;2.88;;;2.60;;
28547;SDS011;68292;49.600;8.746;2023-09-19T05:10:23;2.85;;;2.25;;
28547;SDS011;68292;49.600;8.746;2023-09-19T05:12:52;3.47;;;2.40;;
28547;SDS011;68292;49.600;8.746;2023-09-19T05:15:23;3.45;;;2.30;;
28547;SDS011;68292;49.600;8.746;2023-09-19T05:17:52;2.67;;;2.10;;
28547;SDS011;68292;49.600;8.746;2023-09-19T05:20:24;2.05;;;1.85;;
28547;SDS011;68292;49.600;8.746;2023-09-19T05:22:57;2.92;;;2.33;;
28547;SDS011;68292;49.600;8.746;2023-09-19T05:25:29;4.40;;;2.50;;
28547;SDS011;68292;49.600;8.746;2023-09-19T05:28:01;2.75;;;2.55;;
28547;SDS011;68292;49.600;8.746;2023-09-19T05:30:31;2.25;;;2.03;;
28547;SDS011;68292;49.600;8.746;2023-09-19T05:33:03;2.85;;;2.50;;
28547;SDS011;68292;49.600;8.746;2023-09-19T05:35:32;3.90;;;2.92;;
28547;SDS011;68292;49.600;8.746;2023-09-19T05:38:01;5.13;;;2.35;;
28547;SDS011;68292;49.600;8.746;2023-09-19T05:40:31;2.92;;;2.40;;
28547;SDS011;68292;49.600;8.746;2023-09-19T05:43:01;2.85;;;2.55;;
28547;SDS011;68292;49.600;8.746;2023-09-19T05:45:30;3.72;;;2.30;;
28547;SDS011;68292;49.600;8.746;2023-09-19T05:48:07;3.80;;;2.40;;
28547;SDS011;68292;49.600;8.746;2023-09-19T05:50:38;3.33;;;2.42;;
28547;SDS011;68292;49.600;8.746;2023-09-19T05:53:07;2.70;;;2.28;;
28547;SDS011;68292;49.600;8.746;2023-09-19T05:55:38;3.10;;;2.42;;
28547;SDS011;68292;49.600;8.746;2023-09-19T05:58:09;3.22;;;2.28;;
28547;SDS011;68292;49.600;8.746;2023-09-19T06:00:40;3.88;;;2.40;;
28547;SDS011;68292;49.600;8.746;2023-09-19T06:03:11;2.40;;;2.20;;
28547;SDS011;68292;49.600;8.746;2023-09-19T06:05:40;2.53;;;2.17;;
28547;SDS011;68292;49.600;8.746;2023-09-19T06:08:09;2.47;;;2.10;;
28547;SDS011;68292;49.600;8.746;2023-09-19T06:10:38;4.22;;;2.33;;
28547;SDS011;68292;49.600;8.746;2023-09-19T06:13:08;2.80;;;2.40;;
28547;SDS011;68292;49.600;8.746;2023-09-19T06:15:37;2.70;;;2.50;;
28547;SDS011;68292;49.600;8.746;2023-09-19T06:18:10;3.05;;;2.42;;
28547;SDS011;68292;49.600;8.746;2023-09-19T06:20:42;3.30;;;2.50;;
28547;SDS011;68292;49.600;8.746;2023-09-19T06:23:11;5.65;;;2.30;;
28547;SDS011;68292;49.600;8.746;2023-09-19T06:25:40;4.10;;;2.38;;
28547;SDS011;68292;49.600;8.746;2023-09-19T06:28:11;4.47;;;2.47;;
28547;SDS011;68292;49.600;8.746;2023-09-19T06:30:41;2.67;;;1.95;;
28547;SDS011;68292;49.600;8.746;2023-09-19T06:33:10;4.13;;;2.40;;
28547;SDS011;68292;49.600;8.746;2023-09-19T06:35:44;2.90;;;2.25;;
28547;SDS011;68292;49.600;8.746;2023-09-19T06:38:13;3.03;;;2.22;;
28547;SDS011;68292;49.600;8.746;2023-09-19T06:40:42;3.03;;;2.03;;
28547;SDS011;68292;49.600;8.746;2023-09-19T06:43:12;3.97;;;2.22;;
28547;SDS011;68292;49.600;8.746;2023-09-19T06:45:41;4.55;;;2.08;;
28547;SDS011;68292;49.600;8.746;2023-09-19T06:48:10;2.90;;;1.92;;
28547;SDS011;68292;49.600;8.746;2023-09-19T06:50:39;3.10;;;2.20;;
28547;SDS011;68292;49.600;8.746;2023-09-19T06:53:10;2.90;;;1.90;;
28547;SDS011;68292;49.600;8.746;2023-09-19T06:55:39;3.15;;;2.10;;
28547;SDS011;68292;49.600;8.746;2023-09-19T06:58:10;3.53;;;2.28;;
28547;SDS011;68292;49.600;8.746;2023-09-19T07:00:43;5.07;;;2.25;;
28547;SDS011;68292;49.600;8.746;2023-09-19T07:03:13;4.03;;;2.28;;
28547;SDS011;68292;49.600;8.746;2023-09-19T07:05:43;2.42;;;2.15;;
28547;SDS011;68292;49.600;8.746;2023-09-19T07:08:11;3.95;;;2.00;;
28547;SDS011;68292;49.600;8.746;2023-09-19T07:10:40;2.10;;;1.83;;
28547;SDS011;68292;49.600;8.746;2023-09-19T07:13:17;4.78;;;2.55;;
28547;SDS011;68292;49.600;8.746;2023-09-19T07:15:46;3.38;;;2.10;;
28547;SDS011;68292;49.600;8.746;2023-09-19T07:18:17;2.85;;;2.30;;
28547;SDS011;68292;49.600;8.746;2023-09-19T07:20:47;2.65;;;2.15;;
28547;SDS011;68292;49.600;8.746;2023-09-19T07:23:32;3.33;;;2.20;;
28547;SDS011;68292;49.600;8.746;2023-09-19T07:26:09;6.47;;;2.00;;
28547;SDS011;68292;49.600;8.746;2023-09-19T07:28:39;2.72;;;2.08;;
28547;SDS011;68292;49.600;8.746;2023-09-19T07:31:08;2.45;;;2.22;;
28547;SDS011;68292;49.600;8.746;2023-09-19T07:33:37;3.88;;;2.33;;
28547;SDS011;68292;49.600;8.746;2023-09-19T07:36:09;4.10;;;2.35;;
28547;SDS011;68292;49.600;8.746;2023-09-19T07:38:40;4.65;;;2.00;;
28547;SDS011;68292;49.600;8.746;2023-09-19T07:41:09;3.58;;;2.20;;
28547;SDS011;68292;49.600;8.746;2023-09-19T07:43:37;5.32;;;2.08;;
28547;SDS011;68292;49.600;8.746;2023-09-19T07:46:08;4.78;;;2.60;;
28547;SDS011;68292;49.600;8.746;2023-09-19T07:48:38;2.33;;;1.80;;
28547;SDS011;68292;49.600;8.746;2023-09-19T07:51:07;3.85;;;2.30;;
28547;SDS011;68292;49.600;8.746;2023-09-19T07:53:37;2.65;;;1.98;;
28547;SDS011;68292;49.600;8.746;2023-09-19T07:56:06;2.80;;;1.95;;
28547;SDS011;68292;49.600;8.746;2023-09-19T07:58:40;3.00;;;2.03;;
28547;SDS011;68292;49.600;8.746;2023-09-19T08:01:10;5.38;;;2.35;;
28547;SDS011;68292;49.600;8.746;2023-09-19T08:03:40;2.58;;;1.80;;
28547;SDS011;68292;49.600;8.746;2023-09-19T08:06:10;5.43;;;2.30;;
28547;SDS011;68292;49.600;8.746;2023-09-19T08:08:40;2.83;;;2.50;;
28547;SDS011;68292;49.600;8.746;2023-09-19T08:11:08;3.72;;;2.42;;
28547;SDS011;68292;49.600;8.746;2023-09-19T08:13:40;2.30;;;2.15;;
28547;SDS011;68292;49.600;8.746;2023-09-19T08:16:12;3.00;;;2.40;;
28547;SDS011;68292;49.600;8.746;2023-09-19T08:18:42;2.55;;;2.25;;
28547;SDS011;68292;49.600;8.746;2023-09-19T08:21:11;3.80;;;2.13;;
28547;SDS011;68292;49.600;8.746;2023-09-19T08:23:43;4.00;;;2.33;;
28547;SDS011;68292;49.600;8.746;2023-09-19T08:26:12;5.68;;;2.60;;
28547;SDS011;68292;49.600;8.746;2023-09-19T08:28:42;3.90;;;2.65;;
28547;SDS011;68292;49.600;8.746;2023-09-19T08:31:11;3.30;;;2.88;;
28547;SDS011;68292;49.600;8.746;2023-09-19T08:33:41;2.53;;;2.30;;
28547;SDS011;68292;49.600;8.746;2023-09-19T08:36:11;3.20;;;2.50;;
28547;SDS011;68292;49.600;8.746;2023-09-19T08:38:40;7.35;;;2.17;;
28547;SDS011;68292;49.600;8.746;2023-09-19T08:41:09;2.67;;;2.40;;
28547;SDS011;68292;49.600;8.746;2023-09-19T08:43:39;2.50;;;2.28;;
28547;SDS011;68292;49.600;8.746;2023-09-19T08:46:10;3.05;;;2.20;;
28547;SDS011;68292;49.600;8.746;2023-09-19T08:48:45;3.40;;;2.35;;
28547;SDS011;68292;49.600;8.746;2023-09-19T08:51:26;2.45;;;2.25;;
28547;SDS011;68292;49.600;8.746;2023-09-19T08:54:03;3.85;;;2.63;;
28547;SDS011;68292;49.600;8.746;2023-09-19T08:56:36;2.55;;;2.35;;
28547;SDS011;68292;49.600;8.746;2023-09-19T08:59:07;3.50;;;2.92;;
28547;SDS011;68292;49.600;8.746;2023-09-19T09:01:40;2.50;;;2.30;;
28547;SDS011;68292;49.600;8.746;2023-09-19T09:04:10;2.78;;;2.50;;
28547;SDS011;68292;49.600;8.746;2023-09-19T09:06:40;6.93;;;2.40;;
28547;SDS011;68292;49.600;8.746;2023-09-19T09:09:11;2.65;;;2.42;;
28547;SDS011;68292;49.600;8.746;2023-09-19T09:11:40;3.08;;;2.60;;
28547;SDS011;68292;49.600;8.746;2023-09-19T09:14:09;3.17;;;2.75;;
28547;SDS011;68292;49.600;8.746;2023-09-19T09:16:40;3.55;;;2.70;;
28547;SDS011;68292;49.600;8.746;2023-09-19T09:19:09;2.50;;;2.30;;
28547;SDS011;68292;49.600;8.746;2023-09-19T09:21:39;4.35;;;2.60;;
28547;SDS011;68292;49.600;8.746;2023-09-19T09:24:25;2.95;;;2.65;;
28547;SDS011;68292;49.600;8.746;2023-09-19T09:26:56;3.08;;;2.80;;
28547;SDS011;68292;49.600;8.746;2023-09-19T09:29:43;3.17;;;2.67;;
28547;SDS011;68292;49.600;8.746;2023-09-19T09:32:18;3.45;;;2.53;;
28547;SDS011;68292;49.600;8.746;2023-09-19T09:34:48;3.67;;;2.88;;
28547;SDS011;68292;49.600;8.746;2023-09-19T09:37:25;3.13;;;2.83;;
28547;SDS011;68292;49.600;8.746;2023-09-19T09:39:59;2.88;;;2.67;;
28547;SDS011;68292;49.600;8.746;2023-09-19T09:43:09;3.08;;;2.78;;
28547;SDS011;68292;49.600;8.746;2023-09-19T09:46:12;2.90;;;2.70;;
28547;SDS011;68292;49.600;8.746;2023-09-19T09:49:07;3.50;;;2.97;;
28547;SDS011;68292;49.600;8.746;2023-09-19T09:51:58;4.88;;;2.85;;
28547;SDS011;68292;49.600;8.746;2023-09-19T09:54:59;2.97;;;2.63;;
28547;SDS011;68292;49.600;8.746;2023-09-19T09:57:36;3.22;;;2.67;;
28547;SDS011;68292;49.600;8.746;2023-09-19T10:00:12;3.65;;;2.80;;
28547;SDS011;68292;49.600;8.746;2023-09-19T10:02:50;3.00;;;2.47;;
28547;SDS011;68292;49.600;8.746;2023-09-19T10:05:22;2.95;;;2.65;;
28547;SDS011;68292;49.600;8.746;2023-09-19T10:08:10;2.67;;;2.47;;
28547;SDS011;68292;49.600;8.746;2023-09-19T10:10:46;3.92;;;2.33;;
28547;SDS011;68292;49.600;8.746;2023-09-19T10:13:31;3.42;;;2.30;;
28547;SDS011;68292;49.600;8.746;2023-09-19T10:16:06;2.80;;;2.22;;
28547;SDS011;68292;49.600;8.746;2023-09-19T10:18:42;2.55;;;2.17;;
28547;SDS011;68292;49.600;8.746;2023-09-19T10:21:13;2.70;;;2.40;;
28547;SDS011;68292;49.600;8.746;2023-09-19T10:23:50;3.38;;;2.22;;
28547;SDS011;68292;49.600;8.746;2023-09-19T10:26:23;2.53;;;2.10;;
28547;SDS011;68292;49.600;8.746;2023-09-19T10:28:53;3.08;;;2.13;;
28547;SDS011;68292;49.600;8.746;2023-09-19T10:31:27;3.92;;;2.53;;
28547;SDS011;68292;49.600;8.746;2023-09-19T10:33:56;4.95;;;2.40;;
28547;SDS011;68292;49.600;8.746;2023-09-19T10:36:33;3.42;;;2.42;;
28547;SDS011;68292;49.600;8.746;2023-09-19T10:39:05;3.88;;;2.30;;
28547;SDS011;68292;49.600;8.746;2023-09-19T10:41:40;2.17;;;1.98;;
28547;SDS011;68292;49.600;8.746;2023-09-19T10:44:11;3.35;;;2.53;;
28547;SDS011;68292;49.600;8.746;2023-09-19T10:46:48;2.65;;;2.00;;
28547;SDS011;68292;49.600;8.746;2023-09-19T10:49:22;4.70;;;2.50;;
28547;SDS011;68292;49.600;8.746;2023-09-19T10:52:00;3.25;;;2.05;;
28547;SDS011;68292;49.600;8.746;2023-09-19T10:54:33;3.30;;;2.28;;
28547;SDS011;68292;49.600;8.746;2023-09-19T10:57:03;2.25;;;2.00;;
28547;SDS011;68292;49.600;8.746;2023-09-19T10:59:35;1.95;;;1.58;;
28547;SDS011;68292;49.600;8.746;2023-09-19T11:02:15;3.97;;;2.08;;
28547;SDS011;68292;49.600;8.746;2023-09-19T11:04:46;3.45;;;1.77;;
28547;SDS011;68292;49.600;8.746;2023-09-19T11:07:18;2.63;;;1.95;;
28547;SDS011;68292;49.600;8.746;2023-09-19T11:09:47;2.17;;;1.90;;
28547;SDS011;68292;49.600;8.746;2023-09-19T11:18:52;2.90;;;2.05;;
28547;SDS011;68292;49.600;8.746;2023-09-19T11:21:42;1.92;;;1.50;;
28547;SDS011;68292;49.600;8.746;2023-09-19T11:24:31;3.90;;;1.50;;
28547;SDS011;68292;49.600;8.746;2023-09-19T11:27:14;2.35;;;1.73;;
28547;SDS011;68292;49.600;8.746;2023-09-19T11:29:45;3.97;;;1.60;;
28547;SDS011;68292;49.600;8.746;2023-09-19T11:32:15;2.10;;;1.90;;
28547;SDS011;68292;49.600;8.746;2023-09-19T11:34:47;2.28;;;1.80;;
28547;SDS011;68292;49.600;8.746;2023-09-19T11:40:39;1.65;;;1.45;;
28547;SDS011;68292;49.600;8.746;2023-09-19T11:43:29;3.15;;;1.65;;
28547;SDS011;68292;49.600;8.746;2023-09-19T11:46:03;2.53;;;1.90;;
28547;SDS011;68292;49.600;8.746;2023-09-19T11:48:34;2.50;;;1.85;;
28547;SDS011;68292;49.600;8.746;2023-09-19T11:51:12;4.18;;;1.83;;
28547;SDS011;68292;49.600;8.746;2023-09-19T11:53:53;5.63;;;1.70;;
28547;SDS011;68292;49.600;8.746;2023-09-19T11:56:28;2.35;;;1.60;;
28547;SDS011;68292;49.600;8.746;2023-09-19T11:58:58;1.95;;;1.67;;
28547;SDS011;68292;49.600;8.746;2023-09-19T12:01:29;1.90;;;1.55;;
28547;SDS011;68292;49.600;8.746;2023-09-19T12:04:01;3.72;;;1.80;;
28547;SDS011;68292;49.600;8.746;2023-09-19T12:06:32;2.53;;;1.50;;
28547;SDS011;68292;49.600;8.746;2023-09-19T12:09:03;1.88;;;1.50;;
28547;SDS011;68292;49.600;8.746;2023-09-19T12:11:42;1.73;;;1.58;;
28547;SDS011;68292;49.600;8.746;2023-09-19T12:14:12;2.05;;;1.80;;
28547;SDS011;68292;49.600;8.746;2023-09-19T12:16:52;3.20;;;1.88;;
28547;SDS011;68292;49.600;8.746;2023-09-19T12:19:23;4.03;;;1.88;;
28547;SDS011;68292;49.600;8.746;2023-09-19T12:21:58;1.70;;;1.60;;
28547;SDS011;68292;49.600;8.746;2023-09-19T12:24:32;2.10;;;1.77;;
28547;SDS011;68292;49.600;8.746;2023-09-19T12:27:05;1.83;;;1.35;;
28547;SDS011;68292;49.600;8.746;2023-09-19T12:29:42;3.05;;;1.67;;
28547;SDS011;68292;49.600;8.746;2023-09-19T12:32:12;2.15;;;1.70;;
28547;SDS011;68292;49.600;8.746;2023-09-19T12:34:50;2.08;;;1.67;;
28547;SDS011;68292;49.600;8.746;2023-09-19T12:37:22;1.90;;;1.67;;
28547;SDS011;68292;49.600;8.746;2023-09-19T12:40:03;3.17;;;1.67;;
28547;SDS011;68292;49.600;8.746;2023-09-19T12:42:44;1.90;;;1.50;;
28547;SDS011;68292;49.600;8.746;2023-09-19T12:45:15;1.98;;;1.80;;
28547;SDS011;68292;49.600;8.746;2023-09-19T12:50:59;2.22;;;1.55;;
28547;SDS011;68292;49.600;8.746;2023-09-19T12:53:35;2.78;;;1.55;;
28547;SDS011;68292;49.600;8.746;2023-09-19T12:56:08;2.70;;;1.65;;
28547;SDS011;68292;49.600;8.746;2023-09-19T12:58:50;4.13;;;1.90;;
28547;SDS011;68292;49.600;8.746;2023-09-19T13:01:22;3.05;;;1.52;;
28547;SDS011;68292;49.600;8.746;2023-09-19T13:04:10;1.92;;;1.70;;
28547;SDS011;68292;49.600;8.746;2023-09-19T13:06:46;1.55;;;1.45;;
28547;SDS011;68292;49.600;8.746;2023-09-19T13:09:16;3.15;;;1.60;;
28547;SDS011;68292;49.600;8.746;2023-09-19T13:11:47;1.98;;;1.60;;
28547;SDS011;68292;49.600;8.746;2023-09-19T13:14:19;2.22;;;1.70;;
28547;SDS011;68292;49.600;8.746;2023-09-19T13:16:57;1.80;;;1.52;;
28547;SDS011;68292;49.600;8.746;2023-09-19T13:19:40;1.92;;;1.60;;
28547;SDS011;68292;49.600;8.746;2023-09-19T13:25:08;2.70;;;1.60;;
28547;SDS011;68292;49.600;8.746;2023-09-19T13:27:41;2.05;;;1.45;;
28547;SDS011;68292;49.600;8.746;2023-09-19T13:30:13;2.50;;;1.50;;
28547;SDS011;68292;49.600;8.746;2023-09-19T13:32:42;1.65;;;1.55;;
28547;SDS011;68292;49.600;8.746;2023-09-19T13:35:11;1.88;;;1.70;;
28547;SDS011;68292;49.600;8.746;2023-09-19T13:37:41;2.22;;;1.42;;
28547;SDS011;68292;49.600;8.746;2023-09-19T13:40:12;1.90;;;1.70;;
28547;SDS011;68292;49.600;8.746;2023-09-19T13:42:42;2.75;;;1.67;;
28547;SDS011;68292;49.600;8.746;2023-09-19T13:45:12;2.33;;;1.67;;
28547;SDS011;68292;49.600;8.746;2023-09-19T13:47:44;2.08;;;1.50;;
28547;SDS011;68292;49.600;8.746;2023-09-19T13:50:13;2.55;;;1.70;;
28547;SDS011;68292;49.600;8.746;2023-09-19T13:52:41;1.95;;;1.45;;
28547;SDS011;68292;49.600;8.746;2023-09-19T13:55:10;2.13;;;1.50;;
28547;SDS011;68292;49.600;8.746;2023-09-19T13:57:41;1.83;;;1.63;;
28547;SDS011;68292;49.600;8.746;2023-09-19T14:00:11;2.80;;;1.45;;
28547;SDS011;68292;49.600;8.746;2023-09-19T14:02:43;3.67;;;1.45;;
28547;SDS011;68292;49.600;8.746;2023-09-19T14:05:14;1.73;;;1.50;;
28547;SDS011;68292;49.600;8.746;2023-09-19T14:07:44;2.25;;;1.52;;
28547;SDS011;68292;49.600;8.746;2023-09-19T14:10:13;2.47;;;1.52;;
28547;SDS011;68292;49.600;8.746;2023-09-19T14:12:44;1.73;;;1.38;;
28547;SDS011;68292;49.600;8.746;2023-09-19T14:15:15;3.13;;;1.80;;
28547;SDS011;68292;49.600;8.746;2023-09-19T14:17:44;2.50;;;1.60;;
28547;SDS011;68292;49.600;8.746;2023-09-19T14:20:13;2.20;;;1.75;;
28547;SDS011;68292;49.600;8.746;2023-09-19T14:22:42;2.38;;;1.65;;
28547;SDS011;68292;49.600;8.746;2023-09-19T14:25:11;2.75;;;1.60;;
28547;SDS011;68292;49.600;8.746;2023-09-19T14:27:40;2.13;;;1.65;;
28547;SDS011;68292;49.600;8.746;2023-09-19T14:30:09;2.90;;;1.90;;
28547;SDS011;68292;49.600;8.746;2023-09-19T14:32:41;2.28;;;1.50;;
28547;SDS011;68292;49.600;8.746;2023-09-19T14:35:10;1.55;;;1.40;;
28547;SDS011;68292;49.600;8.746;2023-09-19T14:37:40;1.63;;;1.52;;
28547;SDS011;68292;49.600;8.746;2023-09-19T14:40:09;1.58;;;1.17;;
28547;SDS011;68292;49.600;8.746;2023-09-19T14:42:42;2.28;;;1.60;;
28547;SDS011;68292;49.600;8.746;2023-09-19T14:45:11;1.65;;;1.27;;
28547;SDS011;68292;49.600;8.746;2023-09-19T14:47:45;2.00;;;1.17;;
28547;SDS011;68292;49.600;8.746;2023-09-19T14:50:14;2.00;;;1.45;;
28547;SDS011;68292;49.600;8.746;2023-09-19T14:52:43;1.60;;;1.50;;
28547;SDS011;68292;49.600;8.746;2023-09-19T14:55:12;1.75;;;1.42;;
28547;SDS011;68292;49.600;8.746;2023-09-19T14:57:42;1.63;;;1.52;;
28547;SDS011;68292;49.600;8.746;2023-09-19T15:00:13;2.08;;;1.42;;
28547;SDS011;68292;49.600;8.746;2023-09-19T15:02:44;1.75;;;1.55;;
28547;SDS011;68292;49.600;8.746;2023-09-19T15:05:17;1.85;;;1.40;;
28547;SDS011;68292;49.600;8.746;2023-09-19T15:07:46;1.40;;;1.27;;
28547;SDS011;68292;49.600;8.746;2023-09-19T15:10:15;2.28;;;1.45;;
28547;SDS011;68292;49.600;8.746;2023-09-19T15:12:45;2.55;;;1.25;;
28547;SDS011;68292;49.600;8.746;2023-09-19T15:15:14;1.83;;;1.67;;
28547;SDS011;68292;49.600;8.746;2023-09-19T15:17:45;1.80;;;1.30;;
28547;SDS011;68292;49.600;8.746;2023-09-19T15:20:14;2.17;;;1.40;;
28547;SDS011;68292;49.600;8.746;2023-09-19T15:22:44;1.88;;;1.58;;
28547;SDS011;68292;49.600;8.746;2023-09-19T15:25:14;2.50;;;1.77;;
28547;SDS011;68292;49.600;8.746;2023-09-19T15:27:43;1.80;;;1.60;;
28547;SDS011;68292;49.600;8.746;2023-09-19T15:30:12;1.52;;;1.40;;
28547;SDS011;68292;49.600;8.746;2023-09-19T15:32:42;1.90;;;1.33;;
28547;SDS011;68292;49.600;8.746;2023-09-19T15:35:12;2.13;;;1.65;;